LNZ weather

Linz Hörsching Airport
Linz, Upper Austria, Austria

Public forecast

Using degrees Celsius for public forecast. Weather courtesy of forecast.io.

Current aviation weather report (METAR) for Linz Hörsching Airport

Retrieved 2020/02/23 10:50 UTC (27 minutes ago):

LOWL 231050Z 29008KT 9999 -RA FEW012 BKN042 09/06 Q1021 NOSIG

Aviation forecast (TAF) for Linz Hörsching Airport

Retrieved 2020/02/23 06:21 UTC (5 hours ago):

TAF LOWL 230515Z 2306/2406 25012KT 9999 -SHRA FEW015 SCT025 BKN045 TX13/2317Z TN07/2306Z PROB30 TEMPO 2306/2308 RA TEMPO 2313/2404 27020G30KT NSW PROB40 TEMPO 2317/2401 28028G45KT 6000 SHRA SCT012 BKN025